createdAt,value
2023-05-21T00:01:20.841Z,95870.06
2023-05-21T00:02:52.718Z,95873.53
2023-05-21T00:04:25.518Z,95870.47
2023-05-21T00:05:57.341Z,95872.72
2023-05-21T00:07:29.078Z,95867.31
2023-05-21T00:09:00.703Z,95867.31
2023-05-21T00:10:32.318Z,95862.31
2023-05-21T00:12:04.445Z,95865.44
2023-05-21T00:13:36.221Z,95866.56
2023-05-21T00:15:10.210Z,95854.72
2023-05-21T00:16:42.030Z,95859.28
2023-05-21T00:18:13.920Z,95855.78
2023-05-21T00:19:45.570Z,95853.88
2023-05-21T00:21:17.466Z,95856.19
2023-05-21T00:22:49.197Z,95851.56
2023-05-21T00:24:20.812Z,95855.00
2023-05-21T00:25:52.531Z,95850.81
2023-05-21T00:27:24.173Z,95856.94
2023-05-21T00:28:55.836Z,95848.13
2023-05-21T00:30:28.841Z,95842.41
2023-05-21T00:32:00.681Z,95853.16
2023-05-21T00:33:32.474Z,95845.06
2023-05-21T00:35:05.365Z,95843.91
2023-05-21T00:36:37.040Z,95843.53
2023-05-21T00:38:08.772Z,95839.31
2023-05-21T00:39:40.484Z,95834.31
2023-05-21T00:41:12.136Z,95841.25
2023-05-21T00:42:47.846Z,95845.47
2023-05-21T00:44:20.532Z,95845.06
2023-05-21T00:45:53.887Z,95846.25
2023-05-21T00:47:26.956Z,95836.28
2023-05-21T00:48:58.809Z,95839.75
2023-05-21T00:50:30.788Z,95836.69
2023-05-21T00:52:02.503Z,95837.84
2023-05-21T00:53:36.915Z,95840.13
2023-05-21T00:55:09.628Z,95838.22
2023-05-21T00:56:41.270Z,95832.44
2023-05-21T00:58:12.936Z,95834.75
2023-05-21T00:59:44.631Z,95831.69
2023-05-21T01:01:18.433Z,95833.22
2023-05-21T01:02:50.745Z,95834.38
2023-05-21T01:04:22.820Z,95829.41
2023-05-21T01:05:59.803Z,95821.72
2023-05-21T01:07:34.688Z,95827.09
2023-05-21T01:09:07.268Z,95821.34
2023-05-21T01:10:38.978Z,95819.41
2023-05-21T01:12:10.604Z,95824.78
2023-05-21T01:13:42.683Z,95814.81
2023-05-21T01:15:14.410Z,95814.06
2023-05-21T01:16:49.298Z,95815.59
2023-05-21T01:18:21.444Z,95808.28
2023-05-21T01:19:54.607Z,95815.59
2023-05-21T01:21:28.435Z,95812.13
2023-05-21T01:23:01.473Z,95808.69
2023-05-21T01:24:33.099Z,95817.88
2023-05-21T01:26:04.852Z,95816.34
2023-05-21T01:27:36.469Z,95814.81
2023-05-21T01:29:12.887Z,95815.97
2023-05-21T01:30:44.595Z,95805.22
2023-05-21T01:32:18.430Z,95810.22
2023-05-21T01:33:50.559Z,95814.81
2023-05-21T01:35:23.121Z,95810.59
2023-05-21T01:36:57.346Z,95822.50
2023-05-21T01:38:34.102Z,95818.28
2023-05-21T01:40:08.842Z,95824.06
2023-05-21T01:41:42.089Z,95823.28
2023-05-21T01:43:13.730Z,95819.81
2023-05-21T01:44:46.123Z,95822.13
2023-05-21T01:46:20.474Z,95825.56
2023-05-21T01:47:52.334Z,95815.97
2023-05-21T01:49:23.999Z,95822.09
2023-05-21T01:50:55.739Z,95820.16
2023-05-21T01:52:27.385Z,95819.38
2023-05-21T01:54:00.456Z,95817.13
2023-05-21T01:55:32.186Z,95818.28
2023-05-21T01:57:04.074Z,95820.59
2023-05-21T01:58:35.742Z,95810.25
2023-05-21T02:00:09.037Z,95817.91
2023-05-21T02:01:40.741Z,95814.06
2023-05-21T02:03:13.041Z,95806.41
2023-05-21T02:04:46.160Z,95814.06
2023-05-21T02:06:18.007Z,95804.09
2023-05-21T02:07:50.982Z,95815.22
2023-05-21T02:09:23.961Z,95808.69
2023-05-21T02:10:55.641Z,95810.59
2023-05-21T02:12:28.325Z,95812.53
2023-05-21T02:14:00.567Z,95819.81
2023-05-21T02:15:34.606Z,95819.03
2023-05-21T02:17:08.086Z,95819.41
2023-05-21T02:18:42.119Z,95819.81
2023-05-21T02:20:13.923Z,95810.22
2023-05-21T02:21:45.979Z,95812.13
2023-05-21T02:23:17.673Z,95810.59
2023-05-21T02:24:50.652Z,95813.28
2023-05-21T02:26:22.765Z,95820.56
2023-05-21T02:27:56.664Z,95814.06
2023-05-21T02:29:28.380Z,95807.16
2023-05-21T02:31:00.642Z,95806.38
2023-05-21T02:32:32.436Z,95802.53
2023-05-21T02:34:04.182Z,95801.00
2023-05-21T02:35:36.087Z,95806.34
2023-05-21T02:37:09.676Z,95797.16
2023-05-21T02:38:43.508Z,95799.47
2023-05-21T02:40:16.737Z,95798.72
2023-05-21T02:41:48.407Z,95799.84
2023-05-21T02:43:20.151Z,95798.31
2023-05-21T02:44:51.894Z,95794.84
2023-05-21T02:46:23.673Z,95797.84
2023-05-21T02:47:55.400Z,95799.81
2023-05-21T02:49:27.047Z,95795.22
2023-05-21T02:50:58.703Z,95792.56
2023-05-21T02:52:30.424Z,95790.63
2023-05-21T02:54:02.076Z,95786.44
2023-05-21T02:55:35.573Z,95789.50
2023-05-21T02:57:07.459Z,95787.19
2023-05-21T02:58:39.122Z,95787.19
2023-05-21T03:00:11.917Z,95787.97
2023-05-21T03:01:45.231Z,95790.25
2023-05-21T03:03:17.182Z,95794.09
2023-05-21T03:04:48.944Z,95789.88
2023-05-21T03:06:20.633Z,95786.44
2023-05-21T03:07:53.300Z,95786.41
2023-05-21T03:09:25.027Z,95786.44
2023-05-21T03:10:58.040Z,95787.97
2023-05-21T03:12:29.664Z,95788.72
2023-05-21T03:14:01.559Z,95794.03
2023-05-21T03:15:33.890Z,95792.16
2023-05-21T03:17:06.191Z,95797.09
2023-05-21T03:18:38.171Z,95798.56
2023-05-21T03:20:16.173Z,95790.19
2023-05-21T03:21:49.129Z,95795.56
2023-05-21T03:23:21.784Z,95787.13
2023-05-21T03:24:53.620Z,95799.72
2023-05-21T03:26:29.564Z,95793.25
2023-05-21T03:28:01.194Z,95800.03
2023-05-21T03:29:32.901Z,95798.19
2023-05-21T03:31:04.809Z,95798.19
2023-05-21T03:32:38.043Z,95793.97
2023-05-21T03:34:09.778Z,95804.69
2023-05-21T03:35:41.423Z,95803.09
2023-05-21T03:37:13.055Z,95799.97
2023-05-21T03:38:44.717Z,95803.06
2023-05-21T03:40:16.576Z,95799.19
2023-05-21T03:41:49.594Z,95808.81
2023-05-21T03:43:21.369Z,95801.50
2023-05-21T03:44:53.032Z,95798.88
2023-05-21T03:46:24.775Z,95800.41
2023-05-21T03:47:56.418Z,95797.00
2023-05-21T03:49:28.053Z,95800.06
2023-05-21T03:50:59.770Z,95804.47
2023-05-21T03:52:31.420Z,95803.75
2023-05-21T03:54:03.025Z,95803.41
2023-05-21T03:55:34.837Z,95799.97
2023-05-21T03:57:07.905Z,95806.13
2023-05-21T03:58:39.602Z,95810.72
2023-05-21T04:00:11.886Z,95807.22
2023-05-21T04:01:43.630Z,95814.19
2023-05-21T04:03:15.550Z,95815.31
2023-05-21T04:04:47.838Z,95807.63
2023-05-21T04:06:19.669Z,95808.38
2023-05-21T04:07:51.342Z,95805.72
2023-05-21T04:09:23.105Z,95805.72
2023-05-21T04:10:54.737Z,95819.88
2023-05-21T04:12:27.719Z,95817.19
2023-05-21T04:13:59.391Z,95823.31
2023-05-21T04:15:31.207Z,95823.00
2023-05-21T04:17:04.745Z,95828.50
2023-05-21T04:18:36.461Z,95823.06
2023-05-21T04:20:08.942Z,95821.91
2023-05-21T04:21:40.588Z,95821.41
2023-05-21T04:23:12.246Z,95816.09
2023-05-21T04:24:46.490Z,95815.25
2023-05-21T04:26:18.124Z,95816.06
2023-05-21T04:27:51.134Z,95819.84
2023-05-21T04:29:22.926Z,95818.00
2023-05-21T04:30:56.493Z,95824.50
2023-05-21T04:32:37.132Z,95818.00
2023-05-21T04:34:08.826Z,95821.44
2023-05-21T04:35:44.524Z,95827.56
2023-05-21T04:37:17.973Z,95828.72
2023-05-21T04:38:49.804Z,95825.22
2023-05-21T04:40:24.344Z,95822.19
2023-05-21T04:41:56.620Z,95829.47
2023-05-21T04:43:29.674Z,95825.28
2023-05-21T04:45:01.281Z,95830.63
2023-05-21T04:46:34.842Z,95834.47
2023-05-21T04:48:07.782Z,95833.34
2023-05-21T04:49:39.534Z,95833.72
2023-05-21T04:51:11.190Z,95839.03
2023-05-21T04:52:42.830Z,95837.22
2023-05-21T04:54:14.572Z,95832.94
2023-05-21T04:55:47.016Z,95838.75
2023-05-21T04:57:19.173Z,95832.19
2023-05-21T04:58:52.849Z,95835.22
2023-05-21T05:00:26.186Z,95835.97
2023-05-21T05:01:57.851Z,95839.06
2023-05-21T05:03:30.150Z,95845.28
2023-05-21T05:05:01.855Z,95842.28
2023-05-21T05:06:33.504Z,95839.94
2023-05-21T05:08:06.860Z,95840.63
2023-05-21T05:09:38.549Z,95847.19
2023-05-21T05:11:10.172Z,95855.31
2023-05-21T05:12:41.856Z,95851.88
2023-05-21T05:14:14.856Z,95849.97
2023-05-21T05:15:49.660Z,95858.03
2023-05-21T05:17:21.863Z,95856.88
2023-05-21T05:18:53.649Z,95855.38
2023-05-21T05:20:25.445Z,95855.41
2023-05-21T05:21:57.089Z,95864.59
2023-05-21T05:23:28.720Z,95860.41
2023-05-21T05:25:00.398Z,95859.63
2023-05-21T05:26:32.088Z,95862.31
2023-05-21T05:28:03.986Z,95860.00
2023-05-21T05:29:36.980Z,95855.41
2023-05-21T05:31:08.963Z,95855.41
2023-05-21T05:32:40.652Z,95854.69
2023-05-21T05:34:12.335Z,95849.72
2023-05-21T05:35:43.966Z,95856.22
2023-05-21T05:37:15.815Z,95852.78
2023-05-21T05:38:47.459Z,95851.25
2023-05-21T05:40:19.092Z,95857.00
2023-05-21T05:41:50.775Z,95861.22
2023-05-21T05:43:22.710Z,95862.38
2023-05-21T05:44:55.956Z,95862.75
2023-05-21T05:46:28.759Z,95863.91
2023-05-21T05:48:00.431Z,95857.00
2023-05-21T05:49:32.054Z,95865.44
2023-05-21T05:51:04.033Z,95859.31
2023-05-21T05:52:35.861Z,95861.59
2023-05-21T05:54:07.528Z,95870.06
2023-05-21T05:55:39.288Z,95861.59
2023-05-21T05:57:11.058Z,95868.13
2023-05-21T05:58:42.734Z,95867.75
2023-05-21T06:00:16.683Z,95858.53
2023-05-21T06:01:48.370Z,95871.19
2023-05-21T06:03:20.165Z,95865.47
2023-05-21T06:04:52.923Z,95871.56
2023-05-21T06:06:24.632Z,95862.00
2023-05-21T06:08:02.162Z,95866.19
2023-05-21T06:09:33.786Z,95862.00
2023-05-21T06:11:05.426Z,95867.78
2023-05-21T06:12:37.104Z,95869.31
2023-05-21T06:14:08.774Z,95867.78
2023-05-21T06:15:44.851Z,95875.06
2023-05-21T06:17:16.565Z,95866.22
2023-05-21T06:18:48.215Z,95872.34
2023-05-21T06:20:20.996Z,95861.59
2023-05-21T06:21:52.734Z,95863.56
2023-05-21T06:23:24.380Z,95864.31
2023-05-21T06:24:56.110Z,95872.00
2023-05-21T06:26:27.754Z,95864.31
2023-05-21T06:27:59.432Z,95867.00
2023-05-21T06:29:31.061Z,95867.38
2023-05-21T06:31:04.137Z,95866.63
2023-05-21T06:32:35.962Z,95867.38
2023-05-21T06:34:07.797Z,95865.44
2023-05-21T06:35:40.239Z,95873.13
2023-05-21T06:37:11.875Z,95865.09
2023-05-21T06:38:43.503Z,95863.94
2023-05-21T06:40:15.517Z,95870.84
2023-05-21T06:41:47.176Z,95860.88
2023-05-21T06:43:18.804Z,95862.41
2023-05-21T06:44:50.418Z,95869.31
2023-05-21T06:46:23.461Z,95875.47
2023-05-21T06:47:55.199Z,95858.56
2023-05-21T06:49:27.080Z,95869.69
2023-05-21T06:50:58.788Z,95869.69
2023-05-21T06:52:31.776Z,95865.09
2023-05-21T06:54:03.894Z,95871.22
2023-05-21T06:55:35.727Z,95870.84
2023-05-21T06:57:07.448Z,95869.31
2023-05-21T06:58:39.328Z,95875.06
2023-05-21T07:00:12.356Z,95876.97
2023-05-21T07:01:45.434Z,95874.28
2023-05-21T07:03:17.461Z,95867.03
2023-05-21T07:04:49.293Z,95865.47
2023-05-21T07:06:20.972Z,95873.16
2023-05-21T07:07:52.593Z,95877.00
2023-05-21T07:09:24.257Z,95881.22
2023-05-21T07:10:58.673Z,95880.84
2023-05-21T07:12:30.440Z,95880.81
2023-05-21T07:14:02.228Z,95882.38
2023-05-21T07:15:33.845Z,95877.38
2023-05-21T07:17:07.113Z,95876.97
2023-05-21T07:18:38.933Z,95880.44
2023-05-21T07:20:13.824Z,95886.59
2023-05-21T07:21:49.269Z,95876.59
2023-05-21T07:23:21.401Z,95893.09
2023-05-21T07:24:54.298Z,95890.41
2023-05-21T07:26:26.542Z,95886.19
2023-05-21T07:28:00.941Z,95883.13
2023-05-21T07:29:33.167Z,95886.16
2023-05-21T07:31:05.096Z,95885.75
2023-05-21T07:32:38.282Z,95887.34
2023-05-21T07:34:11.769Z,95886.97
2023-05-21T07:35:43.466Z,95885.41
2023-05-21T07:37:15.675Z,95880.06
2023-05-21T07:38:47.291Z,95880.84
2023-05-21T07:40:22.035Z,95876.22
2023-05-21T07:41:53.848Z,95882.75
2023-05-21T07:43:25.519Z,95883.91
2023-05-21T07:44:57.235Z,95880.03
2023-05-21T07:46:28.952Z,95877.72
2023-05-21T07:48:03.015Z,95870.84
2023-05-21T07:49:34.731Z,95872.38
2023-05-21T07:51:09.135Z,95871.97
2023-05-21T07:52:40.889Z,95868.09
2023-05-21T07:54:12.622Z,95870.75
2023-05-21T07:55:48.000Z,95873.06
2023-05-21T07:57:23.383Z,95859.97
2023-05-21T07:58:55.059Z,95866.41
2023-05-21T08:00:26.714Z,95861.47
2023-05-21T08:01:58.457Z,95860.28
2023-05-21T08:03:31.702Z,95866.81
2023-05-21T08:05:03.616Z,95864.06
2023-05-21T08:06:35.353Z,95859.06
2023-05-21T08:08:07.076Z,95862.88
2023-05-21T08:09:38.754Z,95863.22
2023-05-21T08:11:10.407Z,95863.22
2023-05-21T08:12:42.120Z,95860.25
2023-05-21T08:14:13.908Z,95860.28
2023-05-21T08:15:45.635Z,95856.78
2023-05-21T08:17:17.393Z,95863.22
2023-05-21T08:18:50.572Z,95867.94
2023-05-21T08:20:22.522Z,95864.50
2023-05-21T08:21:54.200Z,95862.13
2023-05-21T08:23:29.007Z,95859.00
2023-05-21T08:25:00.709Z,95862.94
2023-05-21T08:26:32.409Z,95855.28
2023-05-21T08:28:04.436Z,95869.50
2023-05-21T08:29:36.136Z,95868.75
2023-05-21T08:31:07.794Z,95872.19
2023-05-21T08:32:42.980Z,95874.44
2023-05-21T08:34:16.538Z,95877.84
2023-05-21T08:35:48.171Z,95880.16
2023-05-21T08:37:21.363Z,95880.41
2023-05-21T08:38:52.999Z,95881.59
2023-05-21T08:40:24.753Z,95882.69
2023-05-21T08:41:58.526Z,95875.72
2023-05-21T08:43:33.149Z,95882.81
2023-05-21T08:45:08.736Z,95889.25
2023-05-21T08:46:41.136Z,95886.00
2023-05-21T08:48:13.186Z,95884.03
2023-05-21T08:49:48.058Z,95877.41
2023-05-21T08:51:19.690Z,95875.72
2023-05-21T08:52:51.661Z,95872.97
2023-05-21T08:54:23.670Z,95875.22
2023-05-21T08:55:55.854Z,95880.16
2023-05-21T08:57:27.652Z,95868.88
2023-05-21T08:58:59.347Z,95867.94
2023-05-21T09:00:31.140Z,95871.00
2023-05-21T09:02:03.656Z,95866.00
2023-05-21T09:03:39.351Z,95875.38
2023-05-21T09:05:12.735Z,95872.28
2023-05-21T09:06:44.772Z,95870.53
2023-05-21T09:08:18.717Z,95877.66
2023-05-21T09:09:53.478Z,95867.78
2023-05-21T09:11:25.164Z,95871.13
2023-05-21T09:12:56.914Z,95866.47
2023-05-21T09:14:28.710Z,95862.19
2023-05-21T09:16:00.551Z,95864.31
2023-05-21T09:17:32.246Z,95876.84
2023-05-21T09:19:04.794Z,95870.16
2023-05-21T09:20:38.140Z,95872.59
2023-05-21T09:22:10.298Z,95873.81
2023-05-21T09:23:42.480Z,95875.00
2023-05-21T09:25:16.305Z,95881.03
2023-05-21T09:26:47.951Z,95884.22
2023-05-21T09:28:19.674Z,95893.38
2023-05-21T09:29:51.500Z,95885.88
2023-05-21T09:31:24.058Z,95882.50
2023-05-21T09:32:57.205Z,95895.31
2023-05-21T09:34:28.969Z,95886.03
2023-05-21T09:36:02.674Z,95895.84
2023-05-21T09:37:37.769Z,95894.56
2023-05-21T09:39:11.803Z,95895.41
2023-05-21T09:40:44.476Z,95894.44
2023-05-21T09:42:16.300Z,95900.78
2023-05-21T09:43:47.977Z,95893.34
2023-05-21T09:45:20.110Z,95897.28
2023-05-21T09:48:37.212Z,95886.38
2023-05-21T09:50:12.908Z,95887.88
2023-05-21T09:51:46.282Z,95899.25
2023-05-21T09:53:18.117Z,95887.69
2023-05-21T09:54:52.930Z,95886.22
2023-05-21T09:56:25.640Z,95884.25
2023-05-21T09:57:58.150Z,95894.91
2023-05-21T09:59:36.573Z,95893.16
2023-05-21T10:01:08.535Z,95895.66
2023-05-21T10:02:40.186Z,95898.59
2023-05-21T10:04:11.930Z,95896.66
2023-05-21T10:05:43.717Z,95891.50
2023-05-21T10:07:18.231Z,95894.38
2023-05-21T10:08:51.374Z,95893.72
2023-05-21T10:10:26.483Z,95893.69
2023-05-21T10:12:00.368Z,95898.16
2023-05-21T10:13:32.229Z,95889.94
2023-05-21T10:15:04.738Z,95894.84
2023-05-21T10:16:36.958Z,95887.84
2023-05-21T10:18:09.221Z,95883.16
2023-05-21T10:19:40.981Z,95885.16
2023-05-21T10:21:13.333Z,95870.94
2023-05-21T10:22:46.325Z,95870.19
2023-05-21T10:24:18.615Z,95874.47
2023-05-21T10:25:50.413Z,95871.31
2023-05-21T10:27:22.767Z,95865.28
2023-05-21T10:28:56.658Z,95885.69
2023-05-21T10:30:28.290Z,95874.78
2023-05-21T10:32:00.902Z,95868.34
2023-05-21T10:33:33.587Z,95871.22
2023-05-21T10:35:06.678Z,95871.31
2023-05-21T10:36:38.290Z,95860.63
2023-05-21T10:38:11.497Z,95861.75
2023-05-21T10:39:43.253Z,95862.06
2023-05-21T10:41:15.115Z,95856.91
2023-05-21T10:43:03.018Z,95858.84
2023-05-21T10:44:40.585Z,95859.97
2023-05-21T10:46:18.717Z,95870.56
2023-05-21T10:48:03.502Z,95864.03
2023-05-21T10:49:50.585Z,95860.22
2023-05-21T10:51:23.817Z,95860.69
2023-05-21T10:53:01.777Z,95858.59
2023-05-21T10:54:48.705Z,95864.22
2023-05-21T10:56:23.160Z,95862.50
2023-05-21T10:58:26.527Z,95859.72
2023-05-21T10:59:59.679Z,95869.53
2023-05-21T11:01:34.129Z,95858.56
2023-05-21T11:03:06.453Z,95864.44
2023-05-21T11:04:40.204Z,95865.63
2023-05-21T11:06:11.938Z,95868.16
2023-05-21T11:07:53.894Z,95860.19
2023-05-21T11:09:26.356Z,95872.59
2023-05-21T11:10:59.493Z,95866.66
2023-05-21T11:12:34.900Z,95862.31
2023-05-21T11:14:32.636Z,95864.34
2023-05-21T11:16:08.054Z,95855.44
2023-05-21T11:17:40.249Z,95861.03
2023-05-21T11:19:16.914Z,95864.94
2023-05-21T11:20:51.121Z,95860.34
2023-05-21T11:22:23.338Z,95861.91
2023-05-21T11:23:58.118Z,95856.81
2023-05-21T11:25:29.885Z,95857.09
2023-05-21T11:27:05.010Z,95855.19
2023-05-21T11:28:37.073Z,95853.16
2023-05-21T11:30:09.721Z,95858.94
2023-05-21T11:31:45.545Z,95845.84
2023-05-21T11:33:20.637Z,95850.00
2023-05-21T11:34:52.415Z,95847.53
2023-05-21T11:36:24.116Z,95836.84
2023-05-21T11:37:55.751Z,95841.97
2023-05-21T11:39:27.481Z,95840.91
2023-05-21T11:41:01.633Z,95842.34
2023-05-21T11:42:35.217Z,95838.69
2023-05-21T11:44:08.632Z,95838.38
2023-05-21T11:45:40.460Z,95839.22
2023-05-21T11:47:12.642Z,95842.50
2023-05-21T11:48:44.337Z,95841.41
2023-05-21T11:50:16.724Z,95835.78
2023-05-21T11:51:48.343Z,95846.75
2023-05-21T11:53:19.972Z,95848.78
2023-05-21T11:54:55.025Z,95846.84
2023-05-21T11:56:26.703Z,95843.78
2023-05-21T11:57:59.876Z,95850.47
2023-05-21T11:59:33.368Z,95843.22
2023-05-21T12:01:05.174Z,95847.91
2023-05-21T12:02:36.951Z,95837.38
2023-05-21T12:04:08.739Z,95845.91
2023-05-21T12:05:44.835Z,95845.91
2023-05-21T12:07:17.839Z,95850.19
2023-05-21T12:08:52.160Z,95851.78
2023-05-21T12:10:24.348Z,95843.84
2023-05-21T12:11:56.399Z,95844.72
2023-05-21T12:13:29.470Z,95848.22
2023-05-21T12:15:03.089Z,95843.19
2023-05-21T12:16:35.067Z,95846.97
2023-05-21T12:18:06.806Z,95843.56
2023-05-21T12:19:38.527Z,95840.78
2023-05-21T12:21:12.383Z,95847.50
2023-05-21T12:22:44.750Z,95844.78
2023-05-21T12:24:16.551Z,95842.56
2023-05-21T12:25:48.361Z,95838.41
2023-05-21T12:27:21.053Z,95841.13
2023-05-21T12:28:54.179Z,95841.19
2023-05-21T12:30:26.064Z,95844.91
2023-05-21T12:31:59.339Z,95845.22
2023-05-21T12:33:36.687Z,95845.81
2023-05-21T12:35:08.978Z,95839.22
2023-05-21T12:36:40.975Z,95845.88
2023-05-21T12:38:12.672Z,95842.94
2023-05-21T12:39:44.587Z,95845.22
2023-05-21T12:41:16.550Z,95840.38
2023-05-21T12:42:48.169Z,95838.06
2023-05-21T12:44:21.227Z,95843.19
2023-05-21T12:45:52.885Z,95845.50
2023-05-21T12:47:25.710Z,95842.31
2023-05-21T12:48:57.405Z,95846.31
2023-05-21T12:50:29.014Z,95840.91
2023-05-21T12:52:02.895Z,95843.81
2023-05-21T12:53:38.011Z,95843.94
2023-05-21T12:55:11.752Z,95837.63
2023-05-21T12:56:46.483Z,95835.03
2023-05-21T12:58:21.942Z,95839.06
2023-05-21T12:59:58.394Z,95844.63
2023-05-21T13:01:30.228Z,95848.63
2023-05-21T13:03:04.357Z,95841.50
2023-05-21T13:04:36.472Z,95845.84
2023-05-21T13:06:08.463Z,95846.16
2023-05-21T13:07:40.108Z,95836.94
2023-05-21T13:09:11.765Z,95837.63
2023-05-21T13:10:43.482Z,95841.28
2023-05-21T13:12:15.391Z,95827.94
2023-05-21T13:13:46.997Z,95847.75
2023-05-21T13:15:20.202Z,95837.25
2023-05-21T13:16:51.866Z,95836.38
2023-05-21T13:18:23.590Z,95827.19
2023-05-21T13:20:07.107Z,95831.66
2023-05-21T13:21:38.939Z,95835.25
2023-05-21T13:23:11.926Z,95837.28
2023-05-21T13:24:43.638Z,95831.41
2023-05-21T13:26:15.604Z,95829.66
2023-05-21T13:27:47.356Z,95834.81
2023-05-21T13:29:18.969Z,95829.72
2023-05-21T13:30:54.952Z,95832.63
2023-05-21T13:32:26.744Z,95830.44
2023-05-21T13:33:58.432Z,95826.41
2023-05-21T13:35:34.587Z,95828.06
2023-05-21T13:37:06.369Z,95828.56
2023-05-21T13:38:38.006Z,95818.50
2023-05-21T13:40:15.042Z,95832.63
2023-05-21T13:41:47.876Z,95828.16
2023-05-21T13:43:19.504Z,95831.63
2023-05-21T13:44:51.285Z,95823.00
2023-05-21T13:46:27.129Z,95829.81
2023-05-21T13:47:58.959Z,95830.31
2023-05-21T13:49:30.726Z,95821.66
2023-05-21T13:51:02.351Z,95820.03
2023-05-21T13:52:34.050Z,95818.53
2023-05-21T13:54:05.849Z,95819.91
2023-05-21T13:55:37.554Z,95830.41
2023-05-21T13:57:09.305Z,95825.78
2023-05-21T13:58:40.978Z,95826.16
2023-05-21T14:00:15.415Z,95824.75
2023-05-21T14:01:49.890Z,95823.16
2023-05-21T14:03:21.660Z,95817.28
2023-05-21T14:04:53.761Z,95818.28
2023-05-21T14:06:25.445Z,95811.63
2023-05-21T14:07:57.226Z,95827.81
2023-05-21T14:09:29.210Z,95824.31
2023-05-21T14:11:03.319Z,95820.59
2023-05-21T14:12:36.638Z,95824.06
2023-05-21T14:14:08.287Z,95819.75
2023-05-21T14:15:39.920Z,95821.81
2023-05-21T14:17:13.162Z,95815.50
2023-05-21T14:18:44.835Z,95818.38
2023-05-21T14:20:16.462Z,95820.34
2023-05-21T14:21:48.098Z,95820.84
2023-05-21T14:23:19.733Z,95822.47
2023-05-21T14:24:51.342Z,95825.66
2023-05-21T14:26:22.994Z,95824.44
2023-05-21T14:27:54.792Z,95820.09
2023-05-21T14:29:26.402Z,95821.72
2023-05-21T14:30:58.088Z,95819.91
2023-05-21T14:32:31.881Z,95817.47
2023-05-21T14:34:03.683Z,95812.25
2023-05-21T14:35:35.799Z,95811.81
2023-05-21T14:37:07.692Z,95811.66
2023-05-21T14:38:39.478Z,95810.34
2023-05-21T14:40:12.228Z,95814.09
2023-05-21T14:41:43.971Z,95815.75
2023-05-21T14:43:15.788Z,95817.72
2023-05-21T14:44:47.424Z,95810.19
2023-05-21T14:46:19.307Z,95808.38
2023-05-21T14:47:52.390Z,95814.47
2023-05-21T14:49:24.082Z,95812.31
2023-05-21T14:50:55.727Z,95809.19
2023-05-21T14:52:27.662Z,95809.94
2023-05-21T14:53:59.285Z,95814.19
2023-05-21T14:55:34.121Z,95804.03
2023-05-21T14:57:07.734Z,95812.16
2023-05-21T14:58:39.499Z,95807.97
2023-05-21T15:00:12.644Z,95808.69
2023-05-21T15:01:44.450Z,95807.88
2023-05-21T15:03:17.763Z,95813.38
2023-05-21T15:04:49.441Z,95796.81
2023-05-21T15:06:21.138Z,95798.91
2023-05-21T15:07:52.802Z,95800.31
2023-05-21T15:09:24.462Z,95798.66
2023-05-21T15:10:56.919Z,95795.19
2023-05-21T15:12:28.545Z,95792.81
2023-05-21T15:14:00.277Z,95799.97
2023-05-21T15:15:31.897Z,95796.50
2023-05-21T15:17:03.781Z,95794.22
2023-05-21T15:18:36.725Z,95800.44
2023-05-21T15:20:09.476Z,95797.41
2023-05-21T15:21:41.287Z,95788.84
2023-05-21T15:23:17.377Z,95796.03
2023-05-21T15:24:49.584Z,95795.81
2023-05-21T15:26:21.589Z,95789.38
2023-05-21T15:27:53.351Z,95793.00
2023-05-21T15:29:25.041Z,95791.56
2023-05-21T15:30:56.972Z,95795.03
2023-05-21T15:32:28.769Z,95804.31
2023-05-21T15:34:01.770Z,95800.69
2023-05-21T15:35:34.494Z,95788.06
2023-05-21T15:37:06.228Z,95794.94
2023-05-21T15:38:38.046Z,95793.47
2023-05-21T15:40:10.397Z,95795.56
2023-05-21T15:41:42.060Z,95787.88
2023-05-21T15:43:13.686Z,95792.41
2023-05-21T15:44:45.337Z,95789.34
2023-05-21T15:46:17.060Z,95790.34
2023-05-21T15:47:48.727Z,95777.81
2023-05-21T15:49:21.900Z,95782.97
2023-05-21T15:50:54.333Z,95786.34
2023-05-21T15:52:26.040Z,95780.09
2023-05-21T15:53:57.690Z,95783.13
2023-05-21T15:55:32.045Z,95797.06
2023-05-21T15:57:03.901Z,95784.72
2023-05-21T15:58:35.549Z,95782.38
2023-05-21T16:00:08.992Z,95781.19
2023-05-21T16:01:40.673Z,95786.41
2023-05-21T16:03:12.712Z,95783.22
2023-05-21T16:04:45.887Z,95779.50
2023-05-21T16:06:17.604Z,95777.38
2023-05-21T16:07:49.820Z,95777.19
2023-05-21T16:09:21.476Z,95781.41
2023-05-21T16:10:53.120Z,95781.75
2023-05-21T16:12:24.840Z,95779.66
2023-05-21T16:13:56.492Z,95778.13
2023-05-21T16:15:32.237Z,95781.94
2023-05-21T16:17:04.248Z,95769.03
2023-05-21T16:18:36.854Z,95772.69
2023-05-21T16:20:10.723Z,95775.09
2023-05-21T16:21:42.362Z,95773.88
2023-05-21T16:23:14.022Z,95766.31
2023-05-21T16:24:45.684Z,95768.44
2023-05-21T16:26:17.414Z,95771.75
2023-05-21T16:27:49.188Z,95770.25
2023-05-21T16:29:22.075Z,95771.75
2023-05-21T16:30:54.006Z,95772.38
2023-05-21T16:32:25.802Z,95768.13
2023-05-21T16:33:57.642Z,95770.84
2023-05-21T16:35:33.621Z,95766.16
2023-05-21T16:37:05.692Z,95765.25
2023-05-21T16:38:38.130Z,95772.81
2023-05-21T16:40:10.779Z,95776.63
2023-05-21T16:41:43.273Z,95776.75
2023-05-21T16:43:14.957Z,95775.03
2023-05-21T16:44:47.600Z,95770.78
2023-05-21T16:46:19.377Z,95773.47
2023-05-21T16:47:51.387Z,95772.56
2023-05-21T16:49:23.061Z,95780.94
2023-05-21T16:50:56.238Z,95776.97
2023-05-21T16:52:27.938Z,95774.09
2023-05-21T16:53:59.888Z,95777.72
2023-05-21T16:55:31.769Z,95775.72
2023-05-21T16:57:03.507Z,95777.97
2023-05-21T16:58:36.081Z,95780.94
2023-05-21T17:00:08.794Z,95786.50
2023-05-21T17:01:40.475Z,95788.28
2023-05-21T17:03:12.656Z,95786.13
2023-05-21T17:04:44.625Z,95775.63
2023-05-21T17:06:17.634Z,95788.63
2023-05-21T17:07:49.430Z,95790.00
2023-05-21T17:09:21.067Z,95791.06
2023-05-21T17:10:52.727Z,95790.44
2023-05-21T17:12:24.565Z,95788.06
2023-05-21T17:13:56.273Z,95787.22
2023-05-21T17:15:27.987Z,95792.84
2023-05-21T17:16:59.674Z,95797.28
2023-05-21T17:18:31.395Z,95788.16
2023-05-21T17:20:03.428Z,95787.78
2023-05-21T17:21:36.433Z,95790.34
2023-05-21T17:23:08.144Z,95792.84
2023-05-21T17:24:42.477Z,95789.69
2023-05-21T17:26:14.503Z,95793.50
2023-05-21T17:27:46.265Z,95796.78
2023-05-21T17:29:18.586Z,95792.75
2023-05-21T17:30:50.621Z,95793.63
2023-05-21T17:32:22.345Z,95792.31
2023-05-21T17:33:56.211Z,95798.66
2023-05-21T17:35:28.084Z,95795.97
2023-05-21T17:37:01.374Z,95799.78
2023-05-21T17:38:33.297Z,95807.28
2023-05-21T17:40:06.155Z,95801.31
2023-05-21T17:41:38.233Z,95804.97
2023-05-21T17:43:10.031Z,95810.44
2023-05-21T17:44:41.761Z,95803.59
2023-05-21T17:46:17.592Z,95808.81
2023-05-21T17:47:49.384Z,95807.06
2023-05-21T17:49:21.327Z,95811.75
2023-05-21T17:50:52.970Z,95804.56
2023-05-21T17:52:26.949Z,95802.16
2023-05-21T17:53:58.678Z,95801.72
2023-05-21T17:55:30.559Z,95802.91
2023-05-21T17:57:02.530Z,95802.91
2023-05-21T17:58:34.857Z,95805.63
2023-05-21T18:00:08.229Z,95805.53
2023-05-21T18:01:40.156Z,95806.50
2023-05-21T18:03:11.816Z,95798.16
2023-05-21T18:04:43.504Z,95803.25
2023-05-21T18:06:15.546Z,95799.25
2023-05-21T18:07:48.527Z,95799.75
2023-05-21T18:09:20.488Z,95796.72
2023-05-21T18:10:52.442Z,95805.31